createdAt,value
2018-10-09T00:01:21.897Z,11.10
2018-10-09T00:03:56.941Z,11.10
2018-10-09T00:06:31.617Z,11.10
2018-10-09T00:09:08.460Z,11.10
2018-10-09T00:11:43.748Z,11.10
2018-10-09T00:14:18.505Z,11.10
2018-10-09T00:16:53.352Z,11.00
2018-10-09T00:19:28.356Z,11.00
2018-10-09T00:22:03.501Z,11.00
2018-10-09T00:24:38.394Z,11.00
2018-10-09T00:27:13.362Z,11.00
2018-10-09T00:29:48.603Z,11.00
2018-10-09T00:32:18.089Z,11.00
2018-10-09T00:34:48.243Z,11.00
2018-10-09T00:37:24.410Z,11.00
2018-10-09T00:39:59.801Z,10.90
2018-10-09T00:42:34.961Z,10.90
2018-10-09T00:45:10.480Z,10.90
2018-10-09T00:47:47.314Z,10.90
2018-10-09T00:50:22.363Z,10.90
2018-10-09T00:52:57.234Z,10.90
2018-10-09T00:55:32.230Z,10.90
2018-10-09T00:58:07.672Z,10.90
2018-10-09T01:00:42.660Z,10.90
2018-10-09T01:03:17.946Z,10.90
2018-10-09T01:05:52.842Z,10.90
2018-10-09T01:08:28.079Z,10.80
2018-10-09T01:11:03.244Z,10.80
2018-10-09T01:13:38.016Z,10.80
2018-10-09T01:16:13.309Z,10.70
2018-10-09T01:18:48.605Z,10.70
2018-10-09T01:21:23.850Z,10.70
2018-10-09T01:23:58.724Z,10.70
2018-10-09T01:26:34.691Z,10.70
2018-10-09T01:29:09.714Z,10.70
2018-10-09T01:31:44.654Z,10.70
2018-10-09T01:34:19.380Z,10.70
2018-10-09T01:36:54.948Z,10.70
2018-10-09T01:39:30.035Z,10.70
2018-10-09T01:42:05.829Z,10.60
2018-10-09T01:44:41.009Z,10.60
2018-10-09T01:47:16.164Z,10.60
2018-10-09T01:49:50.981Z,10.60
2018-10-09T01:52:25.746Z,10.60
2018-10-09T01:55:00.585Z,10.60
2018-10-09T01:57:35.482Z,10.60
2018-10-09T02:00:11.961Z,10.60
2018-10-09T02:02:47.032Z,10.50
2018-10-09T02:05:21.841Z,10.50
2018-10-09T02:07:56.615Z,10.50
2018-10-09T02:10:31.396Z,10.50
2018-10-09T02:13:06.698Z,10.50
2018-10-09T02:15:41.823Z,10.50
2018-10-09T02:18:16.744Z,10.50
2018-10-09T02:20:51.642Z,10.50
2018-10-09T02:23:26.621Z,10.40
2018-10-09T02:26:01.771Z,10.40
2018-10-09T02:28:36.432Z,10.40
2018-10-09T02:31:11.457Z,10.40
2018-10-09T02:33:46.815Z,10.40
2018-10-09T02:36:22.273Z,10.40
2018-10-09T02:38:57.135Z,10.40
2018-10-09T02:41:31.846Z,10.40
2018-10-09T02:44:07.403Z,10.40
2018-10-09T02:46:42.743Z,10.30
2018-10-09T02:49:17.727Z,10.30
2018-10-09T02:51:52.468Z,10.40
2018-10-09T02:54:27.596Z,10.40
2018-10-09T02:57:03.213Z,10.40
2018-10-09T02:59:38.712Z,10.30
2018-10-09T03:02:13.770Z,10.30
2018-10-09T03:04:49.561Z,10.30
2018-10-09T03:07:24.472Z,10.30
2018-10-09T03:09:59.456Z,10.30
2018-10-09T03:12:34.357Z,10.30
2018-10-09T03:15:09.554Z,10.20
2018-10-09T03:17:44.737Z,10.20
2018-10-09T03:20:19.664Z,10.20
2018-10-09T03:22:54.916Z,10.20
2018-10-09T03:25:26.429Z,10.20
2018-10-09T03:28:01.089Z,10.20
2018-10-09T03:30:36.536Z,10.20
2018-10-09T03:33:11.371Z,10.20
2018-10-09T03:35:46.165Z,10.20
2018-10-09T03:38:21.115Z,10.20
2018-10-09T03:40:56.486Z,10.10
2018-10-09T03:43:31.612Z,10.10
2018-10-09T03:46:06.744Z,10.10
2018-10-09T03:48:42.341Z,10.10
2018-10-09T03:51:17.159Z,10.00
2018-10-09T03:53:52.876Z,10.00
2018-10-09T03:56:27.958Z,10.00
2018-10-09T03:59:03.098Z,10.00
2018-10-09T04:01:38.707Z,10.00
2018-10-09T04:04:13.770Z,9.90
2018-10-09T04:06:48.605Z,9.90
2018-10-09T04:09:23.442Z,9.90
2018-10-09T04:11:58.673Z,9.80
2018-10-09T04:14:33.765Z,9.80
2018-10-09T04:17:08.605Z,9.80
2018-10-09T04:19:43.661Z,9.80
2018-10-09T04:22:21.766Z,9.80
2018-10-09T04:24:56.636Z,9.80
2018-10-09T04:27:31.534Z,9.80
2018-10-09T04:30:06.754Z,9.80
2018-10-09T04:32:41.826Z,9.80
2018-10-09T04:35:16.445Z,9.80
2018-10-09T04:37:51.593Z,9.70
2018-10-09T04:40:26.534Z,9.80
2018-10-09T04:43:02.297Z,9.80
2018-10-09T04:45:37.688Z,9.80
2018-10-09T04:48:12.686Z,9.80
2018-10-09T04:50:48.473Z,9.80
2018-10-09T04:53:23.333Z,9.80
2018-10-09T04:55:58.483Z,9.80
2018-10-09T04:58:33.507Z,9.80
2018-10-09T05:01:08.463Z,9.80
2018-10-09T05:03:43.285Z,9.80
2018-10-09T05:06:18.228Z,9.80
2018-10-09T05:08:53.114Z,9.80
2018-10-09T05:11:27.965Z,9.80
2018-10-09T05:14:02.786Z,9.80
2018-10-09T05:16:37.817Z,9.80
2018-10-09T05:19:12.656Z,9.80
2018-10-09T05:21:47.348Z,9.70
2018-10-09T05:24:19.074Z,9.80
2018-10-09T05:26:54.300Z,9.70
2018-10-09T05:29:29.110Z,9.70
2018-10-09T05:32:04.080Z,9.70
2018-10-09T05:34:39.481Z,9.70
2018-10-09T05:37:14.220Z,9.70
2018-10-09T05:39:49.114Z,9.70
2018-10-09T05:42:23.874Z,9.70
2018-10-09T05:44:58.967Z,9.70
2018-10-09T05:47:34.154Z,9.70
2018-10-09T05:50:10.216Z,9.70
2018-10-09T05:52:45.085Z,9.70
2018-10-09T05:55:20.822Z,9.70
2018-10-09T05:57:55.876Z,9.80
2018-10-09T06:00:31.079Z,9.80
2018-10-09T06:03:07.101Z,9.80
2018-10-09T06:05:41.943Z,9.80
2018-10-09T06:08:16.740Z,9.80
2018-10-09T06:10:51.708Z,9.80
2018-10-09T06:13:26.489Z,9.90
2018-10-09T06:16:01.743Z,9.90
2018-10-09T06:18:36.598Z,9.90
2018-10-09T06:21:11.433Z,9.90
2018-10-09T06:23:46.912Z,9.90
2018-10-09T06:26:22.013Z,10.00
2018-10-09T06:28:57.117Z,10.00
2018-10-09T06:31:33.162Z,10.10
2018-10-09T06:34:08.255Z,10.20
2018-10-09T06:36:43.298Z,10.20
2018-10-09T06:39:18.479Z,10.30
2018-10-09T06:41:53.501Z,10.30
2018-10-09T06:44:28.401Z,10.40
2018-10-09T06:47:03.614Z,10.50
2018-10-09T06:49:38.620Z,10.60
2018-10-09T06:52:13.632Z,10.60
2018-10-09T06:54:48.584Z,10.70
2018-10-09T06:57:24.343Z,10.80
2018-10-09T06:59:59.524Z,10.80
2018-10-09T07:02:34.594Z,10.90
2018-10-09T07:05:10.029Z,11.00
2018-10-09T07:07:45.254Z,11.00
2018-10-09T07:10:20.236Z,11.10
2018-10-09T07:12:55.409Z,11.20
2018-10-09T07:15:31.126Z,11.20
2018-10-09T07:18:06.396Z,11.30
2018-10-09T07:20:41.264Z,11.30
2018-10-09T07:23:16.058Z,11.40
2018-10-09T07:25:51.091Z,11.40
2018-10-09T07:28:26.667Z,11.50
2018-10-09T07:31:01.497Z,11.50
2018-10-09T07:33:36.935Z,11.50
2018-10-09T07:36:12.838Z,11.60
2018-10-09T07:38:47.894Z,11.60
2018-10-09T07:41:23.051Z,11.60
2018-10-09T07:43:58.165Z,11.70
2018-10-09T07:46:33.193Z,11.70
2018-10-09T07:49:08.173Z,11.70
2018-10-09T07:51:42.942Z,11.80
2018-10-09T07:54:18.647Z,11.80
2018-10-09T07:56:54.608Z,11.80
2018-10-09T07:59:29.400Z,11.90
2018-10-09T08:02:04.184Z,11.90
2018-10-09T08:04:39.271Z,11.90
2018-10-09T08:07:14.480Z,11.90
2018-10-09T08:09:50.136Z,12.00
2018-10-09T08:12:25.538Z,12.00
2018-10-09T08:15:00.234Z,12.00
2018-10-09T08:17:36.097Z,12.10
2018-10-09T08:20:11.482Z,12.10
2018-10-09T08:22:47.213Z,12.10
2018-10-09T08:25:22.751Z,12.20
2018-10-09T08:27:57.662Z,12.30
2018-10-09T08:30:32.986Z,12.30
2018-10-09T08:33:08.069Z,12.40
2018-10-09T08:35:43.361Z,12.40
2018-10-09T08:38:18.437Z,12.40
2018-10-09T08:40:53.550Z,12.40
2018-10-09T08:43:28.292Z,12.50
2018-10-09T08:46:02.155Z,12.60
2018-10-09T08:48:37.247Z,12.60
2018-10-09T08:51:13.748Z,12.60
2018-10-09T08:53:48.586Z,12.60
2018-10-09T08:56:23.494Z,12.70
2018-10-09T08:58:58.623Z,12.70
2018-10-09T09:01:34.082Z,12.70
2018-10-09T09:04:09.499Z,12.80
2018-10-09T09:06:44.358Z,12.80
2018-10-09T09:09:19.372Z,12.80
2018-10-09T09:11:54.162Z,12.80
2018-10-09T09:14:29.261Z,12.90
2018-10-09T09:17:04.299Z,12.90
2018-10-09T09:19:39.251Z,12.90
2018-10-09T09:22:14.106Z,13.00
2018-10-09T09:24:49.035Z,13.10
2018-10-09T09:27:24.084Z,13.10
2018-10-09T09:29:59.100Z,13.20
2018-10-09T09:32:34.028Z,13.30
2018-10-09T09:35:09.283Z,13.30
2018-10-09T09:37:44.866Z,13.30
2018-10-09T09:40:20.213Z,13.40
2018-10-09T09:42:55.071Z,13.40
2018-10-09T09:45:30.496Z,13.40
2018-10-09T09:48:05.451Z,13.50
2018-10-09T09:50:40.547Z,13.50
2018-10-09T09:53:15.948Z,13.60
2018-10-09T09:55:50.681Z,13.70
2018-10-09T09:58:22.834Z,13.80
2018-10-09T10:01:02.629Z,13.90
2018-10-09T10:03:38.517Z,14.10
2018-10-09T10:06:13.944Z,14.20
2018-10-09T10:08:49.083Z,14.40
2018-10-09T10:11:24.063Z,14.50
2018-10-09T10:13:59.180Z,14.70
2018-10-09T10:16:36.507Z,14.90
2018-10-09T10:19:12.214Z,15.10
2018-10-09T10:21:48.332Z,15.20
2018-10-09T10:24:23.317Z,15.40
2018-10-09T10:26:58.143Z,15.60
2018-10-09T10:29:33.437Z,15.70
2018-10-09T10:32:08.735Z,15.80
2018-10-09T10:34:44.078Z,15.80
2018-10-09T10:37:19.392Z,15.90
2018-10-09T10:39:55.006Z,15.80
2018-10-09T10:42:30.232Z,15.70
2018-10-09T10:45:06.000Z,15.70
2018-10-09T10:47:35.412Z,15.70
2018-10-09T10:50:10.792Z,15.70
2018-10-09T10:52:46.411Z,15.60
2018-10-09T10:55:22.044Z,15.60
2018-10-09T10:57:56.930Z,15.60
2018-10-09T11:00:31.875Z,15.70
2018-10-09T11:03:07.372Z,15.70
2018-10-09T11:05:42.598Z,15.70
2018-10-09T11:08:17.598Z,15.60
2018-10-09T11:10:52.718Z,15.60
2018-10-09T11:13:33.284Z,15.60
2018-10-09T11:16:08.721Z,15.60
2018-10-09T11:18:43.834Z,15.70
2018-10-09T11:21:18.930Z,15.70
2018-10-09T11:23:53.874Z,15.80
2018-10-09T11:26:28.561Z,15.90
2018-10-09T11:29:03.445Z,16.10
2018-10-09T11:31:38.584Z,16.10
2018-10-09T11:34:13.935Z,16.10
2018-10-09T11:36:49.492Z,16.10
2018-10-09T11:39:25.003Z,16.10
2018-10-09T11:42:00.420Z,16.10
2018-10-09T11:44:35.437Z,16.20
2018-10-09T11:47:10.619Z,16.40
2018-10-09T11:49:45.543Z,16.50
2018-10-09T11:52:20.793Z,16.40
2018-10-09T11:54:55.872Z,16.50
2018-10-09T11:57:31.077Z,16.60
2018-10-09T12:00:06.813Z,16.60
2018-10-09T12:02:41.925Z,16.70
2018-10-09T12:05:16.743Z,16.90
2018-10-09T12:07:52.117Z,17.00
2018-10-09T12:10:27.123Z,17.00
2018-10-09T12:13:02.833Z,17.10
2018-10-09T12:15:37.627Z,17.30
2018-10-09T12:18:12.987Z,17.40
2018-10-09T12:20:48.820Z,17.50
2018-10-09T12:23:24.797Z,17.60
2018-10-09T12:25:59.780Z,17.80
2018-10-09T12:28:34.768Z,17.90
2018-10-09T12:31:10.199Z,18.00
2018-10-09T12:33:44.915Z,18.10
2018-10-09T12:36:19.814Z,18.30
2018-10-09T12:38:54.790Z,18.50
2018-10-09T12:41:29.578Z,18.50
2018-10-09T12:44:04.639Z,18.60
2018-10-09T12:46:40.218Z,18.70
2018-10-09T12:49:15.178Z,18.80
2018-10-09T12:51:50.443Z,18.80
2018-10-09T12:54:25.691Z,18.90
2018-10-09T12:57:00.861Z,19.00
2018-10-09T12:59:36.110Z,19.00
2018-10-09T13:02:11.498Z,19.10
2018-10-09T13:04:46.384Z,19.20
2018-10-09T13:07:21.567Z,19.20
2018-10-09T13:09:56.456Z,19.20
2018-10-09T13:12:31.419Z,19.20
2018-10-09T13:15:07.277Z,19.10
2018-10-09T13:17:42.356Z,19.10
2018-10-09T13:20:17.409Z,19.10
2018-10-09T13:22:52.361Z,19.10
2018-10-09T13:25:28.552Z,19.20
2018-10-09T13:28:03.795Z,19.20
2018-10-09T13:30:38.974Z,19.20
2018-10-09T13:33:13.794Z,19.20
2018-10-09T13:35:49.060Z,19.20
2018-10-09T13:38:24.181Z,19.10
2018-10-09T13:40:59.109Z,19.20
2018-10-09T13:43:34.113Z,19.30
2018-10-09T13:46:09.681Z,19.30
2018-10-09T13:48:44.883Z,19.30
2018-10-09T13:51:20.856Z,19.30
2018-10-09T13:53:55.750Z,19.30
2018-10-09T13:56:30.858Z,19.40
2018-10-09T13:59:06.184Z,19.40
2018-10-09T14:01:45.004Z,19.40
2018-10-09T14:04:20.163Z,19.50
2018-10-09T14:06:55.476Z,19.50
2018-10-09T14:09:30.728Z,19.60
2018-10-09T14:12:06.501Z,19.70
2018-10-09T14:14:41.406Z,19.80
2018-10-09T14:17:16.246Z,19.90
2018-10-09T14:19:51.070Z,19.90
2018-10-09T14:22:26.459Z,20.00
2018-10-09T14:25:01.644Z,20.00
2018-10-09T14:27:37.042Z,20.10
2018-10-09T14:30:11.836Z,20.20
2018-10-09T14:32:46.733Z,20.20
2018-10-09T14:35:21.769Z,20.30
2018-10-09T14:37:56.744Z,20.30
2018-10-09T14:40:32.036Z,20.40
2018-10-09T14:43:07.620Z,20.50
2018-10-09T14:45:42.616Z,20.60
2018-10-09T14:48:17.293Z,20.70
2018-10-09T14:50:52.176Z,20.80
2018-10-09T14:53:27.160Z,20.80
2018-10-09T14:56:02.004Z,20.90
2018-10-09T14:58:37.797Z,20.90
2018-10-09T15:01:12.792Z,20.90
2018-10-09T15:03:47.948Z,20.80
2018-10-09T15:06:22.949Z,20.80
2018-10-09T15:08:57.934Z,20.80
2018-10-09T15:11:33.271Z,20.80
2018-10-09T15:14:08.136Z,20.90
2018-10-09T15:16:42.868Z,20.90
2018-10-09T15:19:18.223Z,20.80
2018-10-09T15:21:53.397Z,20.80
2018-10-09T15:24:28.214Z,20.90
2018-10-09T15:27:03.092Z,20.90
2018-10-09T15:29:38.089Z,20.80
2018-10-09T15:32:13.110Z,20.80
2018-10-09T15:34:48.137Z,20.80
2018-10-09T15:37:28.064Z,20.70
2018-10-09T15:40:04.029Z,20.70
2018-10-09T15:42:39.955Z,20.60
2018-10-09T15:45:15.143Z,20.60
2018-10-09T15:47:51.122Z,20.60
2018-10-09T15:50:26.989Z,20.60
2018-10-09T15:53:04.779Z,20.50
2018-10-09T15:55:40.101Z,20.50
2018-10-09T15:58:15.418Z,20.40
2018-10-09T16:00:51.141Z,20.30
2018-10-09T16:03:26.184Z,20.30
2018-10-09T16:06:01.322Z,20.20
2018-10-09T16:08:36.445Z,20.10
2018-10-09T16:11:11.453Z,20.00
2018-10-09T16:13:46.099Z,19.90
2018-10-09T16:16:22.063Z,19.80
2018-10-09T16:18:56.813Z,19.70
2018-10-09T16:21:31.680Z,19.60
2018-10-09T16:24:06.563Z,19.50
2018-10-09T16:26:41.750Z,19.50
2018-10-09T16:29:17.175Z,19.40
2018-10-09T16:31:52.401Z,19.30
2018-10-09T16:34:27.312Z,19.20
2018-10-09T16:37:02.251Z,19.10
2018-10-09T16:39:37.416Z,19.00
2018-10-09T16:42:12.542Z,18.90
2018-10-09T16:44:47.445Z,18.80
2018-10-09T16:47:22.486Z,18.70
2018-10-09T16:49:57.803Z,18.70
2018-10-09T16:52:32.950Z,18.60
2018-10-09T16:55:07.700Z,18.40
2018-10-09T16:57:42.797Z,18.30
2018-10-09T17:00:17.680Z,18.20
2018-10-09T17:02:53.050Z,18.10
2018-10-09T17:05:28.237Z,18.00
2018-10-09T17:08:03.184Z,17.90
2018-10-09T17:10:39.331Z,17.90
2018-10-09T17:13:14.454Z,17.80
2018-10-09T17:15:43.744Z,17.70
2018-10-09T17:18:18.794Z,17.60
2018-10-09T17:20:54.134Z,17.50
2018-10-09T17:23:29.253Z,17.50
2018-10-09T17:26:04.953Z,17.40
2018-10-09T17:28:39.977Z,17.30
2018-10-09T17:31:15.150Z,17.20
2018-10-09T17:33:50.143Z,17.20
2018-10-09T17:36:25.240Z,17.10
2018-10-09T17:39:00.339Z,17.10
2018-10-09T17:41:35.619Z,17.00
2018-10-09T17:44:10.875Z,17.00
2018-10-09T17:46:46.150Z,16.90
2018-10-09T17:49:21.441Z,16.80
2018-10-09T17:51:56.456Z,16.80
2018-10-09T17:54:32.110Z,16.80
2018-10-09T17:57:07.318Z,16.70
2018-10-09T17:59:42.328Z,16.70
2018-10-09T18:02:17.716Z,16.70
2018-10-09T18:04:53.373Z,16.60
2018-10-09T18:07:28.813Z,16.60
2018-10-09T18:10:03.759Z,16.50
2018-10-09T18:12:38.759Z,16.50
2018-10-09T18:15:15.068Z,16.50
2018-10-09T18:17:50.135Z,16.50
2018-10-09T18:20:25.227Z,16.40
2018-10-09T18:23:00.312Z,16.40
2018-10-09T18:25:35.241Z,16.40
2018-10-09T18:28:10.273Z,16.30
2018-10-09T18:30:45.950Z,16.30
2018-10-09T18:33:21.181Z,16.30
2018-10-09T18:35:56.638Z,16.20
2018-10-09T18:38:31.702Z,16.10
2018-10-09T18:41:06.760Z,16.10
2018-10-09T18:43:42.786Z,16.00
2018-10-09T18:46:17.887Z,16.00
2018-10-09T18:48:53.073Z,15.90
2018-10-09T18:51:28.047Z,15.90
2018-10-09T18:54:03.266Z,15.90
2018-10-09T18:56:38.435Z,15.80
2018-10-09T18:59:13.485Z,15.80
2018-10-09T19:01:48.657Z,15.80
2018-10-09T19:04:23.713Z,15.70
2018-10-09T19:06:58.851Z,15.70
2018-10-09T19:09:34.662Z,15.70
2018-10-09T19:12:09.662Z,15.60
2018-10-09T19:14:45.210Z,15.60
2018-10-09T19:17:20.021Z,15.60
2018-10-09T19:19:54.943Z,15.60
2018-10-09T19:22:29.752Z,15.50
2018-10-09T19:25:05.394Z,15.50
2018-10-09T19:27:40.192Z,15.50
2018-10-09T19:30:15.431Z,15.50
2018-10-09T19:32:50.498Z,15.50
2018-10-09T19:35:25.642Z,15.50
2018-10-09T19:38:00.602Z,15.40
2018-10-09T19:40:35.918Z,15.40
2018-10-09T19:43:10.936Z,15.40
2018-10-09T19:45:46.663Z,15.30
2018-10-09T19:48:21.475Z,15.30
2018-10-09T19:50:56.876Z,15.30
2018-10-09T19:53:32.737Z,15.20
2018-10-09T19:56:07.879Z,15.20
2018-10-09T19:58:43.744Z,15.20
2018-10-09T20:01:19.244Z,15.20
2018-10-09T20:03:54.938Z,15.20
2018-10-09T20:06:29.903Z,15.10
2018-10-09T20:09:09.899Z,15.10
2018-10-09T20:11:44.971Z,15.10
2018-10-09T20:14:20.106Z,15.10
2018-10-09T20:16:55.825Z,15.10
2018-10-09T20:19:30.738Z,15.10
2018-10-09T20:22:08.883Z,15.10
2018-10-09T20:24:44.357Z,15.10
2018-10-09T20:27:19.311Z,15.00
2018-10-09T20:29:54.392Z,15.00
2018-10-09T20:32:31.848Z,15.00
2018-10-09T20:35:07.134Z,15.00
2018-10-09T20:37:42.166Z,15.00
2018-10-09T20:40:17.325Z,15.00
2018-10-09T20:42:52.929Z,15.00
2018-10-09T20:45:34.587Z,14.90
2018-10-09T20:48:09.605Z,14.90
2018-10-09T20:50:44.549Z,14.90
2018-10-09T20:53:19.534Z,14.90
2018-10-09T20:55:54.545Z,14.90
2018-10-09T20:58:29.827Z,14.90
2018-10-09T21:01:04.998Z,14.90
2018-10-09T21:03:40.253Z,14.90
2018-10-09T21:06:15.413Z,14.90
2018-10-09T21:08:50.517Z,14.80
2018-10-09T21:11:26.221Z,14.80
2018-10-09T21:14:02.679Z,14.80
2018-10-09T21:16:38.292Z,14.80
2018-10-09T21:19:13.631Z,14.80
2018-10-09T21:21:48.534Z,14.80
2018-10-09T21:24:23.653Z,14.80
2018-10-09T21:26:58.598Z,14.80
2018-10-09T21:29:33.590Z,14.80
2018-10-09T21:32:08.298Z,14.70
2018-10-09T21:34:43.205Z,14.70
2018-10-09T21:37:18.152Z,14.70
2018-10-09T21:39:53.081Z,14.70
2018-10-09T21:42:27.984Z,14.70
2018-10-09T21:45:03.175Z,14.60
2018-10-09T21:47:42.381Z,14.60
2018-10-09T21:50:17.248Z,14.60
2018-10-09T21:52:52.315Z,14.60
2018-10-09T21:55:27.859Z,14.60
2018-10-09T21:58:03.398Z,14.60
2018-10-09T22:00:43.798Z,14.60
2018-10-09T22:03:19.079Z,14.60
2018-10-09T22:05:54.138Z,14.60
2018-10-09T22:08:29.111Z,14.50
2018-10-09T22:11:04.836Z,14.50
2018-10-09T22:13:39.793Z,14.60
2018-10-09T22:16:14.944Z,14.50
2018-10-09T22:18:49.856Z,14.60
2018-10-09T22:21:25.593Z,14.50
2018-10-09T22:24:01.173Z,14.60
2018-10-09T22:26:36.184Z,14.50
2018-10-09T22:29:12.165Z,14.50
2018-10-09T22:31:47.855Z,14.50
2018-10-09T22:34:22.573Z,14.50
2018-10-09T22:36:57.640Z,14.40
2018-10-09T22:39:32.416Z,14.40
2018-10-09T22:42:07.595Z,14.40
2018-10-09T22:44:42.321Z,14.40
2018-10-09T22:47:17.536Z,14.40
2018-10-09T22:49:46.846Z,14.30
2018-10-09T22:52:21.998Z,14.30
2018-10-09T22:54:57.537Z,14.30
2018-10-09T22:57:32.382Z,14.20
2018-10-09T23:00:07.803Z,14.30
2018-10-09T23:02:43.204Z,14.20
2018-10-09T23:05:18.999Z,14.20
2018-10-09T23:07:53.993Z,14.20
2018-10-09T23:10:29.377Z,14.20
2018-10-09T23:13:04.450Z,14.20
2018-10-09T23:15:40.681Z,14.10
2018-10-09T23:18:16.325Z,14.20
2018-10-09T23:20:51.303Z,14.10
2018-10-09T23:23:26.262Z,14.10
2018-10-09T23:26:01.490Z,14.10
2018-10-09T23:28:36.385Z,14.00
2018-10-09T23:31:11.614Z,14.00
2018-10-09T23:33:46.485Z,14.00
2018-10-09T23:36:21.360Z,14.00
2018-10-09T23:38:56.209Z,13.90
2018-10-09T23:41:31.541Z,13.90
2018-10-09T23:44:06.700Z,13.90
2018-10-09T23:46:41.489Z,13.90
2018-10-09T23:49:16.425Z,13.80
2018-10-09T23:51:51.232Z,13.90
2018-10-09T23:54:26.459Z,13.80
2018-10-09T23:57:02.346Z,13.80
2018-10-09T23:59:37.172Z,13.80
